Time;durP1;ratioP1;P1;durP2;ratioP2;P2;SDS_P1;SDS_P2;PMS_P1;PMS_P2;Temp;Humidity;BMP_temperature;BMP_pressure;BME280_temperature;BME280_humidity;BME280_pressure;Samples;Min_cycle;Max_cycle;Signal;HPM_P1;HPM_P2
2021/10/03 00:02:11;;;;;;;0.95;0.40;;;;;;;;;;4862316;29;20132;-78
2021/10/03 00:04:43;;;;;;;0.43;0.20;;;;;;;;;;4866652;29;20037;-79
2021/10/03 00:07:11;;;;;;;0.73;0.30;;;;;;;;;;4851769;29;20851;-79
2021/10/03 00:09:39;;;;;;;1.52;0.47;;;;;;;;;;4854561;29;20042;-79
2021/10/03 00:12:06;;;;;;;0.60;0.20;;;;;;;;;;4849084;29;20045;-78
2021/10/03 00:14:34;;;;;;;0.73;0.30;;;;;;;;;;4838119;29;20058;-79
2021/10/03 00:17:01;;;;;;;1.33;0.30;;;;;;;;;;4853968;29;20688;-79
2021/10/03 00:19:29;;;;;;;0.90;0.30;;;;;;;;;;4833928;29;20037;-79
2021/10/03 00:21:56;;;;;;;0.47;0.20;;;;;;;;;;4849769;29;20086;-79
2021/10/03 00:24:26;;;;;;;0.40;0.20;;;;;;;;;;4856845;29;20522;-79
2021/10/03 00:26:53;;;;;;;0.38;0.20;;;;;;;;;;4846446;29;20410;-79
2021/10/03 00:29:21;;;;;;;0.60;0.20;;;;;;;;;;4841537;29;20049;-79
2021/10/03 00:31:48;;;;;;;0.68;0.20;;;;;;;;;;4857223;29;20050;-79
2021/10/03 00:34:16;;;;;;;0.57;0.25;;;;;;;;;;4829000;29;20058;-79
2021/10/03 00:36:43;;;;;;;0.43;0.20;;;;;;;;;;4841224;29;21866;-78
2021/10/03 00:39:12;;;;;;;0.47;0.20;;;;;;;;;;4859598;29;20161;-79
2021/10/03 00:41:40;;;;;;;0.57;0.20;;;;;;;;;;4857461;29;20422;-79
2021/10/03 00:44:07;;;;;;;0.40;0.20;;;;;;;;;;4866778;29;20428;-82
2021/10/03 00:46:35;;;;;;;0.60;0.25;;;;;;;;;;4861192;29;20053;-81
2021/10/03 00:49:02;;;;;;;1.00;0.28;;;;;;;;;;4860273;29;20147;-81
2021/10/03 00:51:30;;;;;;;0.40;0.20;;;;;;;;;;4841605;29;20094;-81
2021/10/03 00:53:57;;;;;;;0.52;0.20;;;;;;;;;;4854364;29;20038;-81
2021/10/03 00:56:25;;;;;;;0.50;0.20;;;;;;;;;;4855949;29;20038;-81
2021/10/03 00:58:52;;;;;;;0.65;0.20;;;;;;;;;;4867869;29;20120;-81
2021/10/03 01:01:21;;;;;;;0.85;0.35;;;;;;;;;;4842141;29;20547;-81
2021/10/03 01:03:49;;;;;;;0.73;0.20;;;;;;;;;;4852596;29;20040;-81
2021/10/03 01:06:16;;;;;;;0.77;0.20;;;;;;;;;;4854970;29;20449;-81
2021/10/03 01:08:44;;;;;;;0.50;0.20;;;;;;;;;;4835023;29;20133;-81
2021/10/03 01:11:11;;;;;;;0.85;0.20;;;;;;;;;;4848888;29;20042;-81
2021/10/03 01:13:39;;;;;;;1.33;0.20;;;;;;;;;;4869050;29;20041;-81
2021/10/03 01:16:07;;;;;;;0.70;0.20;;;;;;;;;;4856042;29;20049;-81
2021/10/03 01:18:34;;;;;;;0.45;0.17;;;;;;;;;;4840543;29;20082;-81
2021/10/03 01:21:03;;;;;;;0.30;0.20;;;;;;;;;;4837640;29;20105;-81
2021/10/03 01:23:31;;;;;;;0.45;0.17;;;;;;;;;;4868867;29;20160;-81
2021/10/03 01:25:58;;;;;;;0.73;0.20;;;;;;;;;;4837433;29;20097;-81
2021/10/03 01:28:26;;;;;;;0.43;0.20;;;;;;;;;;4863783;29;20057;-81
2021/10/03 01:30:55;;;;;;;1.50;0.30;;;;;;;;;;4851247;29;20060;-81
2021/10/03 01:33:27;;;;;;;0.35;0.20;;;;;;;;;;4865309;29;20057;-81
2021/10/03 01:35:54;;;;;;;1.35;0.10;;;;;;;;;;4856552;29;20041;-81
2021/10/03 01:38:21;;;;;;;0.55;0.10;;;;;;;;;;4837808;29;20120;-79
2021/10/03 01:40:49;;;;;;;0.68;0.20;;;;;;;;;;4837798;29;20057;-80
2021/10/03 01:43:17;;;;;;;0.40;0.10;;;;;;;;;;4868616;29;20550;-79
2021/10/03 01:45:44;;;;;;;2.28;0.20;;;;;;;;;;4854778;29;20102;-79
2021/10/03 01:48:31;;;;;;;0.82;0.10;;;;;;;;;;4842658;29;20101;-79
2021/10/03 01:51:04;;;;;;;1.30;0.10;;;;;;;;;;4855242;29;20133;-79
2021/10/03 01:53:38;;;;;;;0.88;0.10;;;;;;;;;;4850580;29;20085;-79
2021/10/03 01:56:07;;;;;;;0.22;0.10;;;;;;;;;;4851222;29;20099;-79
2021/10/03 01:58:37;;;;;;;0.50;0.10;;;;;;;;;;4854527;29;20460;-79
2021/10/03 02:01:06;;;;;;;0.57;0.10;;;;;;;;;;4864290;29;20042;-79
2021/10/03 02:03:34;;;;;;;0.30;0.20;;;;;;;;;;4851356;29;20045;-79
2021/10/03 02:06:01;;;;;;;0.20;0.10;;;;;;;;;;4836134;29;20080;-79
2021/10/03 02:08:29;;;;;;;0.20;0.10;;;;;;;;;;4839034;29;20045;-78
2021/10/03 02:10:56;;;;;;;0.52;0.20;;;;;;;;;;4852861;29;20442;-78
2021/10/03 02:13:23;;;;;;;1.75;0.20;;;;;;;;;;4867442;29;20857;-78
2021/10/03 02:15:51;;;;;;;0.20;0.10;;;;;;;;;;4830946;29;1113724;-78
2021/10/03 02:18:20;;;;;;;0.35;0.20;;;;;;;;;;4855671;29;20037;-78
2021/10/03 02:20:51;;;;;;;0.35;0.17;;;;;;;;;;4855072;29;20068;-78
2021/10/03 02:23:19;;;;;;;0.50;0.20;;;;;;;;;;4861834;29;20044;-78
2021/10/03 02:25:47;;;;;;;0.75;0.10;;;;;;;;;;4840594;29;20057;-77
2021/10/03 02:28:16;;;;;;;0.52;0.10;;;;;;;;;;4856785;29;20483;-77
2021/10/03 02:30:44;;;;;;;0.10;0.10;;;;;;;;;;4861642;29;20557;-78
2021/10/03 02:33:12;;;;;;;1.42;0.10;;;;;;;;;;4872945;29;20053;-78
2021/10/03 02:35:39;;;;;;;0.35;0.17;;;;;;;;;;4866755;29;20044;-78
2021/10/03 02:38:08;;;;;;;0.28;0.10;;;;;;;;;;4841079;29;20042;-78
2021/10/03 02:40:35;;;;;;;0.38;0.10;;;;;;;;;;4873503;29;20056;-78
2021/10/03 02:43:05;;;;;;;0.45;0.15;;;;;;;;;;4858075;29;20125;-77
2021/10/03 02:45:43;;;;;;;0.55;0.10;;;;;;;;;;4882519;29;20048;-78
2021/10/03 02:48:11;;;;;;;0.20;0.10;;;;;;;;;;4878556;29;20056;-77
2021/10/03 02:50:38;;;;;;;0.35;0.13;;;;;;;;;;4874544;29;20434;-77
2021/10/03 02:53:09;;;;;;;1.00;0.10;;;;;;;;;;4872957;29;20056;-77
2021/10/03 02:55:37;;;;;;;0.43;0.10;;;;;;;;;;4856372;29;20052;-77
2021/10/03 02:58:06;;;;;;;0.40;0.20;;;;;;;;;;4869818;29;20070;-77
2021/10/03 03:00:34;;;;;;;0.40;0.10;;;;;;;;;;4857498;29;20124;-76
2021/10/03 03:03:02;;;;;;;0.30;0.10;;;;;;;;;;4874355;29;20040;-77
2021/10/03 03:05:30;;;;;;;1.13;0.20;;;;;;;;;;4857652;29;20045;-77
2021/10/03 03:07:57;;;;;;;0.50;0.10;;;;;;;;;;4863408;29;20097;-76
2021/10/03 03:10:24;;;;;;;0.60;0.20;;;;;;;;;;4869766;29;20045;-76
2021/10/03 03:12:52;;;;;;;0.60;0.20;;;;;;;;;;4858586;29;20045;-76
2021/10/03 03:15:19;;;;;;;0.68;0.10;;;;;;;;;;4874965;29;20490;-76
2021/10/03 03:17:47;;;;;;;0.32;0.13;;;;;;;;;;4861240;29;20052;-76
2021/10/03 03:20:14;;;;;;;0.40;0.13;;;;;;;;;;4860784;29;20045;-76
2021/10/03 03:22:42;;;;;;;0.32;0.10;;;;;;;;;;4847905;29;20087;-76
2021/10/03 03:25:13;;;;;;;0.45;0.20;;;;;;;;;;4856232;29;20048;-76
2021/10/03 03:27:40;;;;;;;0.43;0.20;;;;;;;;;;4873503;29;20068;-76
2021/10/03 03:30:09;;;;;;;0.88;0.13;;;;;;;;;;4859036;29;20092;-76
2021/10/03 03:32:36;;;;;;;0.65;0.22;;;;;;;;;;4876051;29;20053;-77
2021/10/03 03:35:04;;;;;;;0.50;0.20;;;;;;;;;;4859206;29;20456;-76
2021/10/03 03:37:31;;;;;;;1.90;0.20;;;;;;;;;;4873282;29;20049;-76
2021/10/03 03:39:58;;;;;;;0.45;0.22;;;;;;;;;;4860740;29;20081;-76
2021/10/03 03:42:26;;;;;;;0.80;0.30;;;;;;;;;;4874766;29;20052;-76
2021/10/03 03:44:53;;;;;;;2.30;0.20;;;;;;;;;;4858519;29;20405;-76
2021/10/03 03:47:20;;;;;;;0.77;0.30;;;;;;;;;;4845626;29;20060;-77
2021/10/03 03:49:51;;;;;;;0.95;0.35;;;;;;;;;;4860035;29;20045;-76
2021/10/03 03:52:19;;;;;;;0.73;0.40;;;;;;;;;;4842652;29;20040;-78
2021/10/03 03:54:46;;;;;;;0.65;0.30;;;;;;;;;;4874046;29;20053;-78
2021/10/03 03:57:14;;;;;;;0.82;0.30;;;;;;;;;;4838834;29;20053;-78
2021/10/03 03:59:41;;;;;;;1.42;0.20;;;;;;;;;;4861261;29;20493;-77
2021/10/03 04:02:09;;;;;;;1.55;0.30;;;;;;;;;;4878087;29;20049;-77
2021/10/03 04:04:36;;;;;;;0.50;0.20;;;;;;;;;;4863468;29;20042;-78
2021/10/03 04:07:04;;;;;;;0.20;0.10;;;;;;;;;;4862046;29;20075;-80
2021/10/03 04:09:32;;;;;;;0.30;0.10;;;;;;;;;;4869109;29;20090;-79
2021/10/03 04:11:59;;;;;;;0.55;0.10;;;;;;;;;;4862687;29;20069;-79
2021/10/03 04:14:27;;;;;;;0.20;0.10;;;;;;;;;;4872436;29;20086;-79
2021/10/03 04:16:55;;;;;;;0.30;0.00;;;;;;;;;;4848215;29;20097;-79
2021/10/03 04:19:23;;;;;;;1.33;0.28;;;;;;;;;;4852710;29;20136;-79
2021/10/03 04:21:50;;;;;;;0.35;0.00;;;;;;;;;;4854952;29;20116;-79
2021/10/03 04:24:17;;;;;;;0.05;0.00;;;;;;;;;;4854960;29;20069;-80
2021/10/03 04:26:45;;;;;;;0.00;0.00;;;;;;;;;;4845730;29;20033;-79
2021/10/03 04:29:12;;;;;;;0.32;0.00;;;;;;;;;;4874794;29;20069;-80
2021/10/03 04:31:39;;;;;;;0.22;0.20;;;;;;;;;;4869628;29;20534;-79
2021/10/03 04:34:08;;;;;;;0.00;0.00;;;;;;;;;;4845953;29;20053;-79
2021/10/03 04:36:36;;;;;;;0.10;0.00;;;;;;;;;;4844876;29;20128;-78
2021/10/03 04:39:04;;;;;;;0.90;0.00;;;;;;;;;;4835140;29;21881;-79
2021/10/03 04:41:31;;;;;;;0.28;0.00;;;;;;;;;;4873312;29;20041;-79
2021/10/03 04:43:59;;;;;;;0.20;0.00;;;;;;;;;;4859962;29;20128;-79
2021/10/03 04:46:26;;;;;;;0.43;0.00;;;;;;;;;;4831842;29;20069;-79
2021/10/03 04:48:54;;;;;;;0.15;0.00;;;;;;;;;;4868444;29;20049;-79
2021/10/03 04:51:21;;;;;;;0.00;0.00;;;;;;;;;;4869854;29;20061;-79
2021/10/03 04:53:48;;;;;;;0.60;0.00;;;;;;;;;;4855803;29;20053;-78
2021/10/03 04:56:17;;;;;;;0.00;0.00;;;;;;;;;;4877369;29;20052;-77
2021/10/03 04:58:44;;;;;;;0.10;0.08;;;;;;;;;;4858482;29;20081;-77
2021/10/03 05:01:14;;;;;;;0.10;0.00;;;;;;;;;;4874533;29;20045;-77
2021/10/03 05:03:41;;;;;;;0.05;0.00;;;;;;;;;;4877766;29;20073;-78
2021/10/03 05:06:10;;;;;;;0.00;0.00;;;;;;;;;;4864306;29;20414;-77
2021/10/03 05:08:38;;;;;;;0.73;0.10;;;;;;;;;;4861113;29;20966;-77
2021/10/03 05:11:08;;;;;;;0.30;0.10;;;;;;;;;;4859465;29;20551;-77
2021/10/03 05:13:35;;;;;;;0.15;0.00;;;;;;;;;;4862989;29;20071;-77
2021/10/03 05:16:02;;;;;;;0.80;0.08;;;;;;;;;;4874482;29;20048;-77
2021/10/03 05:18:30;;;;;;;0.00;0.00;;;;;;;;;;4871495;29;20161;-77
2021/10/03 05:20:57;;;;;;;0.35;0.00;;;;;;;;;;4858497;29;20073;-77
2021/10/03 05:23:24;;;;;;;0.45;0.10;;;;;;;;;;4860968;29;20049;-77
2021/10/03 05:25:52;;;;;;;0.55;0.10;;;;;;;;;;4876931;29;20048;-77
2021/10/03 05:28:19;;;;;;;0.10;0.00;;;;;;;;;;4859634;29;20080;-77
2021/10/03 05:30:49;;;;;;;0.13;0.00;;;;;;;;;;4861800;29;20037;-77
2021/10/03 05:33:16;;;;;;;0.00;0.00;;;;;;;;;;4875859;29;20040;-77
2021/10/03 05:35:44;;;;;;;0.43;0.00;;;;;;;;;;4868669;29;20069;-77
2021/10/03 05:38:11;;;;;;;0.17;0.00;;;;;;;;;;4861349;29;20060;-78
2021/10/03 05:40:38;;;;;;;0.00;0.00;;;;;;;;;;4875504;29;20069;-77
2021/10/03 05:43:06;;;;;;;0.15;0.05;;;;;;;;;;4861473;29;20045;-78
2021/10/03 05:45:33;;;;;;;0.20;0.00;;;;;;;;;;4874881;29;20128;-77
2021/10/03 05:48:00;;;;;;;0.52;0.00;;;;;;;;;;4874788;29;20042;-77
2021/10/03 05:50:28;;;;;;;0.15;0.00;;;;;;;;;;4856734;29;20751;-78
2021/10/03 05:52:55;;;;;;;0.20;0.00;;;;;;;;;;4873936;29;20037;-78
2021/10/03 05:55:22;;;;;;;0.52;0.05;;;;;;;;;;4870712;29;20140;-77
2021/10/03 05:57:50;;;;;;;0.25;0.00;;;;;;;;;;4858669;29;20117;-77
2021/10/03 06:00:17;;;;;;;0.70;0.00;;;;;;;;;;4843362;29;20043;-77
2021/10/03 06:02:44;;;;;;;0.38;0.10;;;;;;;;;;4856798;29;20037;-78
2021/10/03 06:05:12;;;;;;;0.65;0.00;;;;;;;;;;4844380;29;20109;-78
2021/10/03 06:07:40;;;;;;;0.40;0.00;;;;;;;;;;4858469;29;20041;-78
2021/10/03 06:10:09;;;;;;;0.20;0.10;;;;;;;;;;4853293;29;20037;-78
2021/10/03 06:12:36;;;;;;;0.13;0.10;;;;;;;;;;4870334;29;20042;-78
2021/10/03 06:15:04;;;;;;;0.20;0.10;;;;;;;;;;4828660;29;20049;-80
2021/10/03 06:17:31;;;;;;;0.63;0.03;;;;;;;;;;4871987;29;20509;-79
2021/10/03 06:19:59;;;;;;;0.10;0.00;;;;;;;;;;4857790;29;20519;-79
2021/10/03 06:22:26;;;;;;;0.30;0.03;;;;;;;;;;4871761;29;20049;-79
2021/10/03 06:24:54;;;;;;;0.70;0.10;;;;;;;;;;4849863;29;20483;-78
2021/10/03 06:27:21;;;;;;;1.70;0.30;;;;;;;;;;4842786;29;20041;-79
2021/10/03 06:29:48;;;;;;;0.20;0.10;;;;;;;;;;4855491;29;20132;-79
2021/10/03 06:32:16;;;;;;;0.25;0.10;;;;;;;;;;4842146;29;20086;-79
2021/10/03 06:34:43;;;;;;;0.03;0.00;;;;;;;;;;4874207;29;20101;-79
2021/10/03 06:37:11;;;;;;;0.20;0.00;;;;;;;;;;4873572;29;20048;-78
2021/10/03 06:39:38;;;;;;;0.05;0.00;;;;;;;;;;4853541;29;20172;-78
2021/10/03 06:42:05;;;;;;;0.08;0.00;;;;;;;;;;4870266;29;20040;-79
2021/10/03 06:44:33;;;;;;;0.00;0.00;;;;;;;;;;4872886;29;20136;-79
2021/10/03 06:47:00;;;;;;;0.63;0.10;;;;;;;;;;4854804;29;20382;-79
2021/10/03 06:49:28;;;;;;;0.10;0.00;;;;;;;;;;4854182;29;20494;-78
2021/10/03 06:51:55;;;;;;;0.13;0.00;;;;;;;;;;4858395;29;20104;-80
2021/10/03 06:54:22;;;;;;;0.00;0.00;;;;;;;;;;4851837;29;20740;-79
2021/10/03 06:56:50;;;;;;;0.13;0.10;;;;;;;;;;4842127;29;20049;-80
2021/10/03 06:59:17;;;;;;;0.30;0.10;;;;;;;;;;4844189;29;20075;-79
2021/10/03 07:01:45;;;;;;;0.40;0.10;;;;;;;;;;4838486;29;20495;-79
2021/10/03 07:04:12;;;;;;;0.80;0.13;;;;;;;;;;4870178;29;20857;-79
2021/10/03 07:06:39;;;;;;;0.98;0.10;;;;;;;;;;4870083;29;20065;-79
2021/10/03 07:09:07;;;;;;;0.35;0.00;;;;;;;;;;4857397;29;20068;-78
2021/10/03 07:11:34;;;;;;;1.77;0.10;;;;;;;;;;4870789;29;20053;-79
2021/10/03 07:14:02;;;;;;;1.13;0.10;;;;;;;;;;4842903;29;20064;-79
2021/10/03 07:16:29;;;;;;;1.52;0.10;;;;;;;;;;4851387;29;20136;-79
2021/10/03 07:18:56;;;;;;;0.10;0.00;;;;;;;;;;4852935;29;20506;-80
2021/10/03 07:21:24;;;;;;;1.38;0.10;;;;;;;;;;4866100;29;20522;-80
2021/10/03 07:23:51;;;;;;;0.30;0.10;;;;;;;;;;4858334;29;20053;-79
2021/10/03 07:26:18;;;;;;;0.57;0.10;;;;;;;;;;4855081;29;21741;-79
2021/10/03 07:28:46;;;;;;;0.40;0.10;;;;;;;;;;4857863;29;20131;-80
2021/10/03 07:31:14;;;;;;;0.30;0.10;;;;;;;;;;4870894;29;20498;-78
2021/10/03 07:33:41;;;;;;;0.20;0.10;;;;;;;;;;4869259;29;20060;-79
2021/10/03 07:36:09;;;;;;;0.13;0.05;;;;;;;;;;4852744;29;20197;-79
2021/10/03 07:38:39;;;;;;;0.00;0.00;;;;;;;;;;4857897;29;20519;-79
2021/10/03 07:41:06;;;;;;;0.20;0.10;;;;;;;;;;4840809;29;20045;-79
2021/10/03 07:43:33;;;;;;;0.22;0.10;;;;;;;;;;4854766;29;20490;-80
2021/10/03 07:46:01;;;;;;;1.67;0.20;;;;;;;;;;4849473;29;20046;-81
2021/10/03 07:48:28;;;;;;;0.45;0.17;;;;;;;;;;4860053;29;20055;-80
2021/10/03 07:50:56;;;;;;;0.30;0.17;;;;;;;;;;4855776;29;20486;-79
2021/10/03 07:53:23;;;;;;;0.98;0.20;;;;;;;;;;4858450;29;20553;-79
2021/10/03 07:55:50;;;;;;;0.17;0.10;;;;;;;;;;4878053;29;20459;-79
2021/10/03 07:58:18;;;;;;;0.60;0.20;;;;;;;;;;4861527;29;20378;-79
2021/10/03 08:00:45;;;;;;;0.35;0.10;;;;;;;;;;4858517;29;20080;-79
2021/10/03 08:03:13;;;;;;;0.73;0.25;;;;;;;;;;4859307;29;20521;-78
2021/10/03 08:05:41;;;;;;;0.30;0.10;;;;;;;;;;4856695;29;20084;-82
2021/10/03 08:08:09;;;;;;;0.30;0.10;;;;;;;;;;4854420;29;20047;-82
2021/10/03 08:10:36;;;;;;;0.20;0.10;;;;;;;;;;4855197;29;20080;-82
2021/10/03 08:13:04;;;;;;;0.38;0.20;;;;;;;;;;4871329;29;20055;-81
2021/10/03 08:15:32;;;;;;;0.30;0.30;;;;;;;;;;4871085;29;20061;-93
2021/10/03 08:18:06;;;;;;;0.20;0.10;;;;;;;;;;4857292;29;20096;-95
2021/10/03 08:20:34;;;;;;;0.20;0.20;;;;;;;;;;4855363;29;20076;-79
2021/10/03 08:23:02;;;;;;;0.10;0.10;;;;;;;;;;4858984;29;20061;-81
2021/10/03 08:25:30;;;;;;;0.60;0.10;;;;;;;;;;4852784;29;20129;-87
2021/10/03 08:27:57;;;;;;;0.30;0.10;;;;;;;;;;4837966;29;20101;-87
2021/10/03 08:30:25;;;;;;;0.60;0.20;;;;;;;;;;4870006;29;20096;-88
2021/10/03 08:32:52;;;;;;;0.73;0.20;;;;;;;;;;4846830;29;20069;-82
2021/10/03 08:35:20;;;;;;;1.23;0.10;;;;;;;;;;4875845;29;20040;-76
2021/10/03 08:37:47;;;;;;;0.30;0.10;;;;;;;;;;4854569;29;20048;-82
2021/10/03 08:40:15;;;;;;;0.22;0.20;;;;;;;;;;4871842;29;20063;-81
2021/10/03 08:42:42;;;;;;;0.40;0.10;;;;;;;;;;4869653;29;20080;-81
2021/10/03 08:45:10;;;;;;;0.40;0.10;;;;;;;;;;4864976;29;20046;-80
2021/10/03 08:47:38;;;;;;;0.22;0.10;;;;;;;;;;4870982;29;20113;-80
2021/10/03 08:50:09;;;;;;;0.82;0.28;;;;;;;;;;4857198;29;20072;-81
2021/10/03 08:52:39;;;;;;;1.15;0.20;;;;;;;;;;4862300;29;20049;-81
2021/10/03 08:55:10;;;;;;;2.35;0.22;;;;;;;;;;4880084;29;20083;-84
2021/10/03 08:57:38;;;;;;;1.00;0.32;;;;;;;;;;4862154;29;20049;-82
2021/10/03 09:00:08;;;;;;;0.50;0.17;;;;;;;;;;4844724;29;20054;-83
2021/10/03 09:02:54;;;;;;;1.40;0.47;;;;;;;;;;4867242;29;20057;-80
2021/10/03 09:05:22;;;;;;;1.00;0.10;;;;;;;;;;4871478;29;20044;-81
2021/10/03 09:08:01;;;;;;;0.45;0.10;;;;;;;;;;4868214;29;20041;-81
2021/10/03 09:10:43;;;;;;;1.40;0.10;;;;;;;;;;4878228;29;20087;-80
2021/10/03 09:13:10;;;;;;;0.40;0.10;;;;;;;;;;4870343;29;20443;-79
2021/10/03 09:15:38;;;;;;;0.20;0.10;;;;;;;;;;4870828;29;20081;-79
2021/10/03 09:18:08;;;;;;;0.28;0.10;;;;;;;;;;4869835;29;20058;-80
2021/10/03 09:20:48;;;;;;;;;;;;;;;;;;;;;
2021/10/03 09:23:21;;;;;;;0.10;0.10;;;;;;;;;;4862014;29;20111;-81
2021/10/03 09:25:50;;;;;;;0.00;0.00;;;;;;;;;;4864328;29;20050;-83
2021/10/03 09:28:20;;;;;;;1.02;0.17;;;;;;;;;;4862790;29;21661;-82
2021/10/03 09:31:07;;;;;;;0.20;0.00;;;;;;;;;;4868171;29;20052;-81
2021/10/03 09:33:47;;;;;;;0.13;0.05;;;;;;;;;;4859863;29;20049;-81
2021/10/03 09:36:17;;;;;;;0.00;0.00;;;;;;;;;;4864997;29;20060;-78
2021/10/03 09:38:46;;;;;;;0.00;0.00;;;;;;;;;;4877777;29;20076;-78
2021/10/03 09:41:13;;;;;;;0.38;0.10;;;;;;;;;;4870739;29;20041;-78
2021/10/03 09:43:42;;;;;;;0.28;0.00;;;;;;;;;;4861429;29;20064;-78
2021/10/03 09:46:28;;;;;;;0.10;0.00;;;;;;;;;;4864882;29;20496;-77
2021/10/03 09:48:55;;;;;;;0.32;0.10;;;;;;;;;;4872351;29;20098;-77
2021/10/03 09:51:24;;;;;;;0.00;0.00;;;;;;;;;;4870689;29;20057;-78
2021/10/03 09:53:52;;;;;;;0.05;0.00;;;;;;;;;;4872759;29;20469;-80
2021/10/03 09:56:20;;;;;;;0.10;0.00;;;;;;;;;;4873794;29;20056;-78
2021/10/03 09:58:47;;;;;;;0.32;0.00;;;;;;;;;;4851705;29;20128;-79
2021/10/03 10:01:16;;;;;;;0.00;0.00;;;;;;;;;;4876290;29;20123;-79
2021/10/03 10:03:44;;;;;;;0.00;0.00;;;;;;;;;;4857892;29;20100;-80
2021/10/03 10:06:13;;;;;;;0.00;0.00;;;;;;;;;;4862127;29;20108;-81
2021/10/03 10:08:40;;;;;;;0.10;0.00;;;;;;;;;;4855073;29;20045;-80
2021/10/03 10:11:13;;;;;;;0.05;0.00;;;;;;;;;;4868066;29;20057;-79
2021/10/03 10:13:41;;;;;;;0.08;0.00;;;;;;;;;;4851776;29;20101;-80
2021/10/03 10:16:27;;;;;;;0.13;0.00;;;;;;;;;;4856444;29;20077;-80
2021/10/03 10:19:14;;;;;;;0.03;0.00;;;;;;;;;;4842296;29;20483;-80
2021/10/03 10:21:41;;;;;;;0.20;0.10;;;;;;;;;;4850686;29;20392;-80
2021/10/03 10:24:44;;;;;;;0.00;0.00;;;;;;;;;;4865675;29;22687;-78
2021/10/03 10:27:32;;;;;;;0.00;0.00;;;;;;;;;;4850407;29;20060;-77
2021/10/03 10:30:02;;;;;;;0.00;0.00;;;;;;;;;;4868841;29;20117;-79
2021/10/03 10:32:32;;;;;;;0.30;0.10;;;;;;;;;;4857712;29;20052;-79
2021/10/03 10:35:10;;;;;;;0.00;0.00;;;;;;;;;;4859794;29;20041;-79
2021/10/03 10:37:50;;;;;;;0.20;0.03;;;;;;;;;;4848798;29;20081;-81
2021/10/03 10:40:26;;;;;;;0.00;0.00;;;;;;;;;;4848027;29;20064;-79
2021/10/03 10:43:03;;;;;;;0.00;0.00;;;;;;;;;;4860512;29;20069;-80
2021/10/03 10:45:30;;;;;;;0.00;0.00;;;;;;;;;;4854335;29;20129;-80
2021/10/03 10:48:07;;;;;;;0.10;0.00;;;;;;;;;;4855571;29;20041;-80
2021/10/03 10:50:35;;;;;;;0.10;0.10;;;;;;;;;;4859807;29;20042;-80
2021/10/03 10:53:22;;;;;;;0.10;0.10;;;;;;;;;;4856511;29;20049;-80
2021/10/03 10:56:08;;;;;;;0.10;0.10;;;;;;;;;;4858044;29;20041;-80
2021/10/03 10:58:37;;;;;;;0.03;0.00;;;;;;;;;;4859072;29;20053;-80
2021/10/03 11:01:07;;;;;;;0.30;0.00;;;;;;;;;;4861757;29;20049;-80
2021/10/03 11:03:44;;;;;;;0.10;0.00;;;;;;;;;;4851792;29;20148;-80
2021/10/03 11:06:14;;;;;;;0.10;0.10;;;;;;;;;;4859800;29;20120;-80
2021/10/03 11:09:00;;;;;;;1.15;0.00;;;;;;;;;;4844433;29;20041;-80
2021/10/03 11:11:32;;;;;;;0.22;0.10;;;;;;;;;;4859793;29;20046;-80
2021/10/03 11:14:00;;;;;;;1.67;0.10;;;;;;;;;;4875994;29;20049;-81
2021/10/03 11:16:27;;;;;;;0.20;0.20;;;;;;;;;;4871474;29;20091;-80
2021/10/03 11:18:56;;;;;;;0.00;0.00;;;;;;;;;;4859689;29;20057;-80
2021/10/03 11:21:28;;;;;;;0.40;0.10;;;;;;;;;;4883396;29;20081;-80
2021/10/03 11:23:57;;;;;;;0.15;0.10;;;;;;;;;;4880566;29;20067;-80
2021/10/03 11:26:25;;;;;;;0.22;0.10;;;;;;;;;;4874246;29;20060;-79
2021/10/03 11:28:57;;;;;;;0.28;0.15;;;;;;;;;;4871238;29;20403;-80
2021/10/03 11:31:55;;;;;;;0.35;0.20;;;;;;;;;;4875216;29;20131;-78
2021/10/03 11:34:34;;;;;;;0.30;0.10;;;;;;;;;;4846209;29;20049;-84
2021/10/03 11:37:03;;;;;;;0.32;0.20;;;;;;;;;;4863800;29;20515;-79
2021/10/03 11:39:38;;;;;;;0.43;0.22;;;;;;;;;;4852468;29;20097;-79
2021/10/03 11:42:09;;;;;;;0.20;0.10;;;;;;;;;;4875326;29;20049;-76
2021/10/03 11:44:37;;;;;;;0.85;0.32;;;;;;;;;;4857908;29;20046;-78
2021/10/03 11:47:07;;;;;;;0.40;0.20;;;;;;;;;;4869905;29;20049;-79
2021/10/03 11:49:36;;;;;;;0.47;0.22;;;;;;;;;;4854733;29;20588;-80
2021/10/03 11:52:04;;;;;;;0.60;0.30;;;;;;;;;;4855649;29;20041;-78
2021/10/03 11:54:34;;;;;;;0.40;0.20;;;;;;;;;;4874285;29;20089;-79
2021/10/03 11:57:21;;;;;;;0.43;0.15;;;;;;;;;;4870367;29;20057;-80
2021/10/03 11:59:49;;;;;;;0.40;0.20;;;;;;;;;;4877077;29;20101;-79
2021/10/03 12:02:17;;;;;;;0.68;0.28;;;;;;;;;;4862592;29;20049;-79
2021/10/03 12:04:57;;;;;;;0.60;0.30;;;;;;;;;;4878574;29;20460;-78
2021/10/03 12:07:24;;;;;;;0.30;0.15;;;;;;;;;;4853784;29;20056;-78
2021/10/03 12:10:18;;;;;;;0.65;0.30;;;;;;;;;;4855143;29;20061;-78
2021/10/03 12:12:50;;;;;;;0.70;0.40;;;;;;;;;;4858320;29;20053;-78
2021/10/03 12:15:50;;;;;;;0.95;0.40;;;;;;;;;;4859584;29;20061;-78
2021/10/03 12:18:29;;;;;;;0.50;0.20;;;;;;;;;;4839971;29;20068;-78
2021/10/03 12:21:01;;;;;;;0.45;0.17;;;;;;;;;;4880739;29;20081;-79
2021/10/03 12:23:41;;;;;;;0.60;0.30;;;;;;;;;;4862124;29;20466;-78
2021/10/03 12:26:29;;;;;;;1.25;0.13;;;;;;;;;;4871167;29;20041;-78
2021/10/03 12:28:57;;;;;;;0.68;0.10;;;;;;;;;;4871295;29;20101;-78
2021/10/03 12:31:58;;;;;;;0.40;0.20;;;;;;;;;;4875846;29;20095;-81
2021/10/03 12:34:26;;;;;;;0.47;0.17;;;;;;;;;;4824066;29;20450;-80
2021/10/03 12:37:15;;;;;;;0.40;0.20;;;;;;;;;;4864691;29;20582;-80
2021/10/03 12:39:45;;;;;;;1.15;0.35;;;;;;;;;;4863858;29;20068;-78
2021/10/03 12:42:12;;;;;;;0.63;0.40;;;;;;;;;;4870195;29;20065;-80
2021/10/03 12:44:40;;;;;;;0.35;0.30;;;;;;;;;;4860451;29;20458;-79
2021/10/03 12:47:11;;;;;;;0.60;0.30;;;;;;;;;;4878346;29;20061;-78
2021/10/03 12:49:39;;;;;;;0.52;0.40;;;;;;;;;;4856861;29;20045;-76
2021/10/03 12:52:07;;;;;;;0.22;0.20;;;;;;;;;;4867266;29;20128;-76
2021/10/03 12:54:35;;;;;;;0.50;0.30;;;;;;;;;;4844967;29;20123;-76
2021/10/03 12:57:03;;;;;;;0.77;0.47;;;;;;;;;;4870276;29;20052;-77
2021/10/03 12:59:31;;;;;;;0.75;0.30;;;;;;;;;;4856422;29;20045;-77
2021/10/03 13:01:58;;;;;;;0.65;0.40;;;;;;;;;;4870148;29;20068;-76
2021/10/03 13:04:26;;;;;;;1.05;0.60;;;;;;;;;;4858386;29;20045;-76
2021/10/03 13:06:53;;;;;;;1.52;0.55;;;;;;;;;;4876227;29;20051;-76
2021/10/03 13:09:21;;;;;;;0.95;0.47;;;;;;;;;;4856321;29;20049;-76
2021/10/03 13:11:48;;;;;;;1.23;0.43;;;;;;;;;;4858089;29;20029;-77
2021/10/03 13:14:16;;;;;;;0.82;0.40;;;;;;;;;;4875009;29;20132;-77
2021/10/03 13:16:43;;;;;;;1.60;0.70;;;;;;;;;;4850494;29;20064;-77
2021/10/03 13:19:11;;;;;;;2.05;1.13;;;;;;;;;;4834504;29;20041;-77
2021/10/03 13:21:38;;;;;;;2.05;1.00;;;;;;;;;;4869660;29;20084;-75
2021/10/03 13:24:06;;;;;;;1.92;1.08;;;;;;;;;;4858194;29;20455;-77
2021/10/03 13:26:34;;;;;;;1.63;1.08;;;;;;;;;;4843783;29;20041;-76
2021/10/03 13:29:02;;;;;;;2.90;1.35;;;;;;;;;;4851056;29;20102;-77
2021/10/03 13:31:29;;;;;;;2.70;1.25;;;;;;;;;;4859585;29;20105;-76
2021/10/03 13:34:00;;;;;;;3.80;1.95;;;;;;;;;;4860953;29;20113;-77
2021/10/03 13:36:27;;;;;;;3.10;1.38;;;;;;;;;;4855109;29;20469;-76
2021/10/03 13:38:56;;;;;;;3.50;1.85;;;;;;;;;;4856061;29;20049;-76
2021/10/03 13:41:23;;;;;;;4.25;1.98;;;;;;;;;;4858166;29;20041;-76
2021/10/03 13:43:51;;;;;;;2.25;1.40;;;;;;;;;;4857948;29;20136;-76
2021/10/03 13:46:18;;;;;;;3.00;1.30;;;;;;;;;;4852278;29;20045;-75
2021/10/03 13:48:45;;;;;;;6.85;3.75;;;;;;;;;;4857127;29;20046;-76
2021/10/03 13:51:13;;;;;;;4.97;2.95;;;;;;;;;;4850829;29;20042;-76
2021/10/03 13:53:40;;;;;;;3.33;1.92;;;;;;;;;;4850975;29;20072;-76
2021/10/03 13:56:08;;;;;;;2.85;1.33;;;;;;;;;;4857315;29;20121;-76
2021/10/03 13:58:36;;;;;;;1.83;0.88;;;;;;;;;;4855235;29;20110;-77
2021/10/03 14:01:03;;;;;;;1.50;0.80;;;;;;;;;;4858988;29;20073;-76
2021/10/03 14:03:31;;;;;;;2.22;0.80;;;;;;;;;;4858052;29;20052;-76
2021/10/03 14:05:58;;;;;;;1.40;0.50;;;;;;;;;;4870065;29;20447;-75
2021/10/03 14:08:26;;;;;;;1.38;0.40;;;;;;;;;;4849226;29;20530;-75
2021/10/03 14:10:53;;;;;;;1.85;0.55;;;;;;;;;;4854207;29;20072;-74
2021/10/03 14:13:21;;;;;;;1.30;0.40;;;;;;;;;;4854672;29;20076;-74
2021/10/03 14:15:48;;;;;;;0.77;0.47;;;;;;;;;;4855462;29;20128;-74
2021/10/03 14:18:15;;;;;;;0.60;0.30;;;;;;;;;;4854364;29;20124;-74
2021/10/03 14:20:43;;;;;;;0.43;0.30;;;;;;;;;;4862134;29;20550;-74
2021/10/03 14:23:10;;;;;;;0.47;0.30;;;;;;;;;;4860506;29;20049;-74
2021/10/03 14:25:42;;;;;;;0.77;0.20;;;;;;;;;;4858289;29;20102;-74
2021/10/03 14:28:11;;;;;;;0.45;0.20;;;;;;;;;;4858791;29;20053;-73
2021/10/03 14:30:39;;;;;;;0.30;0.10;;;;;;;;;;4859838;29;20072;-75
2021/10/03 14:33:07;;;;;;;0.60;0.20;;;;;;;;;;4862847;29;20101;-75
2021/10/03 14:35:35;;;;;;;0.45;0.20;;;;;;;;;;4864430;29;20065;-77
2021/10/03 14:38:03;;;;;;;0.30;0.10;;;;;;;;;;4854581;29;20451;-76
2021/10/03 14:40:31;;;;;;;0.30;0.20;;;;;;;;;;4855109;29;20142;-73
2021/10/03 14:42:58;;;;;;;0.68;0.10;;;;;;;;;;4860066;29;20053;-74
2021/10/03 14:45:26;;;;;;;0.60;0.20;;;;;;;;;;4846357;29;20057;-75
2021/10/03 14:47:54;;;;;;;0.98;0.20;;;;;;;;;;4874342;29;20447;-75
2021/10/03 14:50:22;;;;;;;0.50;0.20;;;;;;;;;;4854364;29;20053;-76
2021/10/03 14:52:54;;;;;;;0.45;0.20;;;;;;;;;;4859583;29;20078;-77
2021/10/03 14:55:21;;;;;;;1.70;0.20;;;;;;;;;;4857862;29;20495;-76
2021/10/03 14:57:51;;;;;;;0.60;0.20;;;;;;;;;;4859033;29;20149;-77